sensor_id;sensor_type;location;lat;lon;timestamp;temperature;humidity
19152;DHT22;9708;53.114;9.388;2023-04-24T00:02:23;12.20;99.90
19152;DHT22;9708;53.114;9.388;2023-04-24T00:04:51;12.20;99.90
19152;DHT22;9708;53.114;9.388;2023-04-24T00:07:18;12.20;99.90
19152;DHT22;9708;53.114;9.388;2023-04-24T00:09:45;12.20;99.90
19152;DHT22;9708;53.114;9.388;2023-04-24T00:12:12;12.10;99.90
19152;DHT22;9708;53.114;9.388;2023-04-24T00:14:39;12.10;99.90
19152;DHT22;9708;53.114;9.388;2023-04-24T00:17:05;12.10;99.90
19152;DHT22;9708;53.114;9.388;2023-04-24T00:19:33;12.10;99.90
19152;DHT22;9708;53.114;9.388;2023-04-24T00:22:00;12.10;99.90
19152;DHT22;9708;53.114;9.388;2023-04-24T00:24:28;12.10;99.90
19152;DHT22;9708;53.114;9.388;2023-04-24T00:26:55;12.10;99.90
19152;DHT22;9708;53.114;9.388;2023-04-24T00:29:22;12.10;99.90
19152;DHT22;9708;53.114;9.388;2023-04-24T00:31:48;12.30;99.90
19152;DHT22;9708;53.114;9.388;2023-04-24T00:34:15;12.30;99.90
19152;DHT22;9708;53.114;9.388;2023-04-24T00:36:43;12.20;99.90
19152;DHT22;9708;53.114;9.388;2023-04-24T00:39:10;12.10;99.90
19152;DHT22;9708;53.114;9.388;2023-04-24T00:41:37;12.10;99.90
19152;DHT22;9708;53.114;9.388;2023-04-24T00:44:04;12.00;99.90
19152;DHT22;9708;53.114;9.388;2023-04-24T00:46:31;12.10;99.90
19152;DHT22;9708;53.114;9.388;2023-04-24T00:48:59;12.10;99.90
19152;DHT22;9708;53.114;9.388;2023-04-24T00:51:26;12.10;99.90
19152;DHT22;9708;53.114;9.388;2023-04-24T00:53:54;12.00;99.90
19152;DHT22;9708;53.114;9.388;2023-04-24T00:56:21;12.10;99.90
19152;DHT22;9708;53.114;9.388;2023-04-24T00:58:49;12.00;99.90
19152;DHT22;9708;53.114;9.388;2023-04-24T01:01:16;12.10;99.90
19152;DHT22;9708;53.114;9.388;2023-04-24T01:03:43;12.00;99.90
19152;DHT22;9708;53.114;9.388;2023-04-24T01:06:10;11.90;99.90
19152;DHT22;9708;53.114;9.388;2023-04-24T01:08:38;11.90;99.90
19152;DHT22;9708;53.114;9.388;2023-04-24T01:11:07;11.90;99.90
19152;DHT22;9708;53.114;9.388;2023-04-24T01:13:34;11.90;99.90
19152;DHT22;9708;53.114;9.388;2023-04-24T01:16:01;11.90;99.90
19152;DHT22;9708;53.114;9.388;2023-04-24T01:18:28;11.90;99.90
19152;DHT22;9708;53.114;9.388;2023-04-24T01:20:57;11.90;99.90
19152;DHT22;9708;53.114;9.388;2023-04-24T01:23:26;11.90;99.90
19152;DHT22;9708;53.114;9.388;2023-04-24T01:25:53;11.90;99.90
19152;DHT22;9708;53.114;9.388;2023-04-24T01:28:20;12.00;99.90
19152;DHT22;9708;53.114;9.388;2023-04-24T01:30:47;11.90;99.90
19152;DHT22;9708;53.114;9.388;2023-04-24T01:33:14;11.80;99.90
19152;DHT22;9708;53.114;9.388;2023-04-24T01:35:42;11.80;99.90
19152;DHT22;9708;53.114;9.388;2023-04-24T01:38:09;11.80;99.90
19152;DHT22;9708;53.114;9.388;2023-04-24T01:40:37;11.70;99.90
19152;DHT22;9708;53.114;9.388;2023-04-24T01:43:04;11.70;99.90
19152;DHT22;9708;53.114;9.388;2023-04-24T01:45:31;11.70;99.90
19152;DHT22;9708;53.114;9.388;2023-04-24T01:47:58;11.70;99.90
19152;DHT22;9708;53.114;9.388;2023-04-24T01:50:26;11.60;99.90
19152;DHT22;9708;53.114;9.388;2023-04-24T01:52:53;11.60;99.90
19152;DHT22;9708;53.114;9.388;2023-04-24T01:55:21;11.50;99.90
19152;DHT22;9708;53.114;9.388;2023-04-24T01:57:50;11.50;99.90
19152;DHT22;9708;53.114;9.388;2023-04-24T02:00:18;11.50;99.90
19152;DHT22;9708;53.114;9.388;2023-04-24T02:02:45;11.50;99.90
19152;DHT22;9708;53.114;9.388;2023-04-24T02:05:12;11.50;99.90
19152;DHT22;9708;53.114;9.388;2023-04-24T02:07:39;11.50;99.90
19152;DHT22;9708;53.114;9.388;2023-04-24T02:10:06;11.40;99.90
19152;DHT22;9708;53.114;9.388;2023-04-24T02:12:33;11.40;99.90
19152;DHT22;9708;53.114;9.388;2023-04-24T02:15:02;11.40;99.90
19152;DHT22;9708;53.114;9.388;2023-04-24T02:17:29;11.30;99.90
19152;DHT22;9708;53.114;9.388;2023-04-24T02:19:56;11.30;99.90
19152;DHT22;9708;53.114;9.388;2023-04-24T02:22:23;11.30;99.90
19152;DHT22;9708;53.114;9.388;2023-04-24T02:24:50;11.30;99.90
19152;DHT22;9708;53.114;9.388;2023-04-24T02:27:17;11.40;99.90
19152;DHT22;9708;53.114;9.388;2023-04-24T02:29:44;11.50;99.90
19152;DHT22;9708;53.114;9.388;2023-04-24T02:32:12;11.40;99.90
19152;DHT22;9708;53.114;9.388;2023-04-24T02:34:40;11.40;99.90
19152;DHT22;9708;53.114;9.388;2023-04-24T02:37:07;11.30;99.90
19152;DHT22;9708;53.114;9.388;2023-04-24T02:39:34;11.30;99.90
19152;DHT22;9708;53.114;9.388;2023-04-24T02:42:01;11.30;99.90
19152;DHT22;9708;53.114;9.388;2023-04-24T02:44:28;11.30;99.90
19152;DHT22;9708;53.114;9.388;2023-04-24T02:46:55;11.30;99.90
19152;DHT22;9708;53.114;9.388;2023-04-24T02:49:23;11.30;99.90
19152;DHT22;9708;53.114;9.388;2023-04-24T02:51:49;11.40;99.90
19152;DHT22;9708;53.114;9.388;2023-04-24T02:54:16;11.40;99.90
19152;DHT22;9708;53.114;9.388;2023-04-24T02:56:43;11.40;99.90
19152;DHT22;9708;53.114;9.388;2023-04-24T02:59:10;11.40;99.90
19152;DHT22;9708;53.114;9.388;2023-04-24T03:01:36;11.40;99.90
19152;DHT22;9708;53.114;9.388;2023-04-24T03:04:03;11.50;99.90
19152;DHT22;9708;53.114;9.388;2023-04-24T03:06:31;11.50;99.90
19152;DHT22;9708;53.114;9.388;2023-04-24T03:09:00;11.50;99.90
19152;DHT22;9708;53.114;9.388;2023-04-24T03:11:27;11.50;99.90
19152;DHT22;9708;53.114;9.388;2023-04-24T03:13:54;11.50;99.90
19152;DHT22;9708;53.114;9.388;2023-04-24T03:16:21;11.40;99.90
19152;DHT22;9708;53.114;9.388;2023-04-24T03:18:48;11.40;99.90
19152;DHT22;9708;53.114;9.388;2023-04-24T03:21:14;11.40;99.90
19152;DHT22;9708;53.114;9.388;2023-04-24T03:23:43;11.40;99.90
19152;DHT22;9708;53.114;9.388;2023-04-24T03:26:09;11.40;99.90
19152;DHT22;9708;53.114;9.388;2023-04-24T03:28:36;11.30;99.90
19152;DHT22;9708;53.114;9.388;2023-04-24T03:31:03;11.40;99.90
19152;DHT22;9708;53.114;9.388;2023-04-24T03:33:30;11.40;99.90
19152;DHT22;9708;53.114;9.388;2023-04-24T03:35:57;11.40;99.90
19152;DHT22;9708;53.114;9.388;2023-04-24T03:38:23;11.40;99.90
19152;DHT22;9708;53.114;9.388;2023-04-24T03:40:52;11.40;99.90
19152;DHT22;9708;53.114;9.388;2023-04-24T03:43:18;11.50;99.90
19152;DHT22;9708;53.114;9.388;2023-04-24T03:45:45;11.50;99.90
19152;DHT22;9708;53.114;9.388;2023-04-24T03:48:12;11.50;99.90
19152;DHT22;9708;53.114;9.388;2023-04-24T03:50:39;11.50;99.90
19152;DHT22;9708;53.114;9.388;2023-04-24T03:53:05;11.50;99.90
19152;DHT22;9708;53.114;9.388;2023-04-24T03:55:32;11.50;99.90
19152;DHT22;9708;53.114;9.388;2023-04-24T03:58:00;11.50;99.90
19152;DHT22;9708;53.114;9.388;2023-04-24T04:00:27;11.40;99.90
19152;DHT22;9708;53.114;9.388;2023-04-24T04:02:54;11.40;99.90
19152;DHT22;9708;53.114;9.388;2023-04-24T04:05:20;11.40;99.90
19152;DHT22;9708;53.114;9.388;2023-04-24T04:07:47;11.40;99.90
19152;DHT22;9708;53.114;9.388;2023-04-24T04:10:14;11.40;99.90
19152;DHT22;9708;53.114;9.388;2023-04-24T04:12:42;11.30;99.90
19152;DHT22;9708;53.114;9.388;2023-04-24T04:15:10;11.30;99.90
19152;DHT22;9708;53.114;9.388;2023-04-24T04:17:37;11.20;99.90
19152;DHT22;9708;53.114;9.388;2023-04-24T04:20:05;11.10;99.90
19152;DHT22;9708;53.114;9.388;2023-04-24T04:22:35;11.10;99.90
19152;DHT22;9708;53.114;9.388;2023-04-24T04:25:02;11.10;99.90
19152;DHT22;9708;53.114;9.388;2023-04-24T04:27:29;11.20;99.90
19152;DHT22;9708;53.114;9.388;2023-04-24T04:29:58;11.10;99.90
19152;DHT22;9708;53.114;9.388;2023-04-24T04:32:28;11.10;99.90
19152;DHT22;9708;53.114;9.388;2023-04-24T04:34:54;11.10;99.90
19152;DHT22;9708;53.114;9.388;2023-04-24T04:37:21;11.10;99.90
19152;DHT22;9708;53.114;9.388;2023-04-24T04:39:48;11.00;99.90
19152;DHT22;9708;53.114;9.388;2023-04-24T04:42:15;11.10;99.90
19152;DHT22;9708;53.114;9.388;2023-04-24T04:44:42;11.10;99.90
19152;DHT22;9708;53.114;9.388;2023-04-24T04:47:10;11.10;99.90
19152;DHT22;9708;53.114;9.388;2023-04-24T04:49:38;11.10;99.90
19152;DHT22;9708;53.114;9.388;2023-04-24T04:52:06;11.10;99.90
19152;DHT22;9708;53.114;9.388;2023-04-24T04:54:33;11.10;99.90
19152;DHT22;9708;53.114;9.388;2023-04-24T04:57:00;11.10;99.90
19152;DHT22;9708;53.114;9.388;2023-04-24T04:59:27;11.30;99.90
19152;DHT22;9708;53.114;9.388;2023-04-24T05:01:53;11.50;99.90
19152;DHT22;9708;53.114;9.388;2023-04-24T05:04:20;12.40;99.90
19152;DHT22;9708;53.114;9.388;2023-04-24T05:06:48;13.60;99.90
19152;DHT22;9708;53.114;9.388;2023-04-24T05:09:16;14.10;99.90
19152;DHT22;9708;53.114;9.388;2023-04-24T05:11:43;14.30;99.90
19152;DHT22;9708;53.114;9.388;2023-04-24T05:14:10;14.80;99.90
19152;DHT22;9708;53.114;9.388;2023-04-24T05:16:38;15.50;99.90
19152;DHT22;9708;53.114;9.388;2023-04-24T05:19:04;15.10;99.90
19152;DHT22;9708;53.114;9.388;2023-04-24T05:21:32;14.60;99.90
19152;DHT22;9708;53.114;9.388;2023-04-24T05:24:00;14.90;99.90
19152;DHT22;9708;53.114;9.388;2023-04-24T05:26:27;15.30;99.90
19152;DHT22;9708;53.114;9.388;2023-04-24T05:28:54;16.00;99.90
19152;DHT22;9708;53.114;9.388;2023-04-24T05:31:20;15.80;99.90
19152;DHT22;9708;53.114;9.388;2023-04-24T05:33:47;15.40;99.90
19152;DHT22;9708;53.114;9.388;2023-04-24T05:36:14;15.80;99.90
19152;DHT22;9708;53.114;9.388;2023-04-24T05:38:41;17.00;99.90
19152;DHT22;9708;53.114;9.388;2023-04-24T05:41:09;16.50;99.90
19152;DHT22;9708;53.114;9.388;2023-04-24T05:43:36;17.10;99.90
19152;DHT22;9708;53.114;9.388;2023-04-24T05:46:02;17.30;99.90
19152;DHT22;9708;53.114;9.388;2023-04-24T05:48:29;16.90;99.90
19152;DHT22;9708;53.114;9.388;2023-04-24T05:50:56;15.60;99.90
19152;DHT22;9708;53.114;9.388;2023-04-24T05:53:23;15.00;99.90
19152;DHT22;9708;53.114;9.388;2023-04-24T05:55:50;15.00;99.90
19152;DHT22;9708;53.114;9.388;2023-04-24T05:58:18;15.30;99.90
19152;DHT22;9708;53.114;9.388;2023-04-24T06:00:44;16.40;99.90
19152;DHT22;9708;53.114;9.388;2023-04-24T06:03:12;16.40;99.90
19152;DHT22;9708;53.114;9.388;2023-04-24T06:05:39;16.80;99.90
19152;DHT22;9708;53.114;9.388;2023-04-24T06:08:05;17.80;99.90
19152;DHT22;9708;53.114;9.388;2023-04-24T06:10:32;18.30;99.90
19152;DHT22;9708;53.114;9.388;2023-04-24T06:12:59;18.10;99.90
19152;DHT22;9708;53.114;9.388;2023-04-24T06:15:29;18.10;99.90
19152;DHT22;9708;53.114;9.388;2023-04-24T06:17:56;18.60;99.90
19152;DHT22;9708;53.114;9.388;2023-04-24T06:20:24;18.40;99.90
19152;DHT22;9708;53.114;9.388;2023-04-24T06:22:51;18.40;99.90
19152;DHT22;9708;53.114;9.388;2023-04-24T06:25:17;18.50;99.90
19152;DHT22;9708;53.114;9.388;2023-04-24T06:27:44;17.80;99.90
19152;DHT22;9708;53.114;9.388;2023-04-24T06:30:12;18.30;99.90
19152;DHT22;9708;53.114;9.388;2023-04-24T06:32:40;19.20;99.90
19152;DHT22;9708;53.114;9.388;2023-04-24T06:35:07;19.70;99.90
19152;DHT22;9708;53.114;9.388;2023-04-24T06:37:35;20.50;99.90
19152;DHT22;9708;53.114;9.388;2023-04-24T06:40:02;20.20;99.90
19152;DHT22;9708;53.114;9.388;2023-04-24T06:42:29;20.00;99.90
19152;DHT22;9708;53.114;9.388;2023-04-24T06:44:56;20.00;99.90
19152;DHT22;9708;53.114;9.388;2023-04-24T06:47:22;18.40;99.90
19152;DHT22;9708;53.114;9.388;2023-04-24T06:49:51;19.00;99.90
19152;DHT22;9708;53.114;9.388;2023-04-24T06:52:18;18.90;99.90
19152;DHT22;9708;53.114;9.388;2023-04-24T06:54:44;19.40;99.90
19152;DHT22;9708;53.114;9.388;2023-04-24T06:57:11;18.90;99.90
19152;DHT22;9708;53.114;9.388;2023-04-24T06:59:38;18.50;99.90
19152;DHT22;9708;53.114;9.388;2023-04-24T07:02:05;17.30;99.90
19152;DHT22;9708;53.114;9.388;2023-04-24T07:04:32;16.00;99.90
19152;DHT22;9708;53.114;9.388;2023-04-24T07:07:00;16.20;99.90
19152;DHT22;9708;53.114;9.388;2023-04-24T07:09:27;15.70;99.90
19152;DHT22;9708;53.114;9.388;2023-04-24T07:11:54;14.90;99.90
19152;DHT22;9708;53.114;9.388;2023-04-24T07:14:22;14.40;99.90
19152;DHT22;9708;53.114;9.388;2023-04-24T07:16:49;14.30;99.90
19152;DHT22;9708;53.114;9.388;2023-04-24T07:19:15;14.10;99.90
19152;DHT22;9708;53.114;9.388;2023-04-24T07:21:42;13.60;99.90
19152;DHT22;9708;53.114;9.388;2023-04-24T07:24:10;13.60;99.90
19152;DHT22;9708;53.114;9.388;2023-04-24T07:26:38;13.50;99.90
19152;DHT22;9708;53.114;9.388;2023-04-24T07:29:05;13.60;99.90
19152;DHT22;9708;53.114;9.388;2023-04-24T07:31:32;13.60;99.90
19152;DHT22;9708;53.114;9.388;2023-04-24T07:33:59;13.40;99.90
19152;DHT22;9708;53.114;9.388;2023-04-24T07:36:26;13.30;99.90
19152;DHT22;9708;53.114;9.388;2023-04-24T07:38:54;13.60;99.90
19152;DHT22;9708;53.114;9.388;2023-04-24T07:41:22;14.10;99.90
19152;DHT22;9708;53.114;9.388;2023-04-24T07:43:49;14.20;99.90
19152;DHT22;9708;53.114;9.388;2023-04-24T07:46:16;14.40;99.90
19152;DHT22;9708;53.114;9.388;2023-04-24T07:48:43;14.50;99.90
19152;DHT22;9708;53.114;9.388;2023-04-24T07:51:11;14.90;99.90
19152;DHT22;9708;53.114;9.388;2023-04-24T07:53:38;15.00;99.90
19152;DHT22;9708;53.114;9.388;2023-04-24T07:56:05;14.80;99.90
19152;DHT22;9708;53.114;9.388;2023-04-24T07:58:34;14.50;99.90
19152;DHT22;9708;53.114;9.388;2023-04-24T08:01:01;13.90;99.90
19152;DHT22;9708;53.114;9.388;2023-04-24T08:03:27;13.70;99.90
19152;DHT22;9708;53.114;9.388;2023-04-24T08:05:55;13.70;99.90
19152;DHT22;9708;53.114;9.388;2023-04-24T08:08:22;13.80;99.90
19152;DHT22;9708;53.114;9.388;2023-04-24T08:10:49;13.80;99.90
19152;DHT22;9708;53.114;9.388;2023-04-24T08:13:16;13.80;99.90
19152;DHT22;9708;53.114;9.388;2023-04-24T08:15:44;13.80;99.90
19152;DHT22;9708;53.114;9.388;2023-04-24T08:18:11;14.00;99.90
19152;DHT22;9708;53.114;9.388;2023-04-24T08:20:39;13.90;99.90
19152;DHT22;9708;53.114;9.388;2023-04-24T08:23:05;14.10;99.90
19152;DHT22;9708;53.114;9.388;2023-04-24T08:25:32;13.90;99.90
19152;DHT22;9708;53.114;9.388;2023-04-24T08:28:01;14.10;99.90
19152;DHT22;9708;53.114;9.388;2023-04-24T08:30:28;13.90;99.90
19152;DHT22;9708;53.114;9.388;2023-04-24T08:32:57;14.10;99.90
19152;DHT22;9708;53.114;9.388;2023-04-24T08:35:23;14.10;99.90
19152;DHT22;9708;53.114;9.388;2023-04-24T08:37:52;13.70;99.90
19152;DHT22;9708;53.114;9.388;2023-04-24T08:40:22;13.50;99.90
19152;DHT22;9708;53.114;9.388;2023-04-24T08:42:53;13.40;99.90
19152;DHT22;9708;53.114;9.388;2023-04-24T08:45:21;13.30;99.90
19152;DHT22;9708;53.114;9.388;2023-04-24T08:47:48;13.10;99.90
19152;DHT22;9708;53.114;9.388;2023-04-24T08:50:17;13.20;99.90
19152;DHT22;9708;53.114;9.388;2023-04-24T08:52:44;13.10;99.90
19152;DHT22;9708;53.114;9.388;2023-04-24T08:55:11;13.10;99.90
19152;DHT22;9708;53.114;9.388;2023-04-24T08:57:37;13.00;99.90
19152;DHT22;9708;53.114;9.388;2023-04-24T09:00:07;12.90;99.90
19152;DHT22;9708;53.114;9.388;2023-04-24T09:02:34;12.80;99.90
19152;DHT22;9708;53.114;9.388;2023-04-24T09:05:01;12.80;99.90
19152;DHT22;9708;53.114;9.388;2023-04-24T09:07:33;12.90;99.90
19152;DHT22;9708;53.114;9.388;2023-04-24T09:10:02;12.90;99.90
19152;DHT22;9708;53.114;9.388;2023-04-24T09:12:29;12.90;99.90
19152;DHT22;9708;53.114;9.388;2023-04-24T09:14:57;12.90;99.90
19152;DHT22;9708;53.114;9.388;2023-04-24T09:17:24;13.00;99.90
19152;DHT22;9708;53.114;9.388;2023-04-24T09:19:53;13.00;99.90
19152;DHT22;9708;53.114;9.388;2023-04-24T09:22:21;13.20;99.90
19152;DHT22;9708;53.114;9.388;2023-04-24T09:25:00;13.40;99.90
19152;DHT22;9708;53.114;9.388;2023-04-24T09:27:28;13.10;99.90
19152;DHT22;9708;53.114;9.388;2023-04-24T09:29:55;13.20;99.90
19152;DHT22;9708;53.114;9.388;2023-04-24T09:32:23;13.20;99.90
19152;DHT22;9708;53.114;9.388;2023-04-24T09:35:05;13.30;99.90
19152;DHT22;9708;53.114;9.388;2023-04-24T09:37:35;13.20;99.90
19152;DHT22;9708;53.114;9.388;2023-04-24T09:40:15;13.30;99.90
19152;DHT22;9708;53.114;9.388;2023-04-24T09:42:46;13.20;99.90
19152;DHT22;9708;53.114;9.388;2023-04-24T09:45:13;13.20;99.90
19152;DHT22;9708;53.114;9.388;2023-04-24T09:47:40;13.20;99.90
19152;DHT22;9708;53.114;9.388;2023-04-24T09:50:12;13.10;99.90
19152;DHT22;9708;53.114;9.388;2023-04-24T09:52:43;12.90;99.90
19152;DHT22;9708;53.114;9.388;2023-04-24T09:55:20;12.90;99.90
19152;DHT22;9708;53.114;9.388;2023-04-24T09:57:48;13.00;99.90
19152;DHT22;9708;53.114;9.388;2023-04-24T10:00:18;13.20;99.90
19152;DHT22;9708;53.114;9.388;2023-04-24T10:02:49;13.30;99.90
19152;DHT22;9708;53.114;9.388;2023-04-24T10:05:17;13.60;99.90
19152;DHT22;9708;53.114;9.388;2023-04-24T10:07:44;14.00;99.90
19152;DHT22;9708;53.114;9.388;2023-04-24T10:10:11;14.70;99.90
19152;DHT22;9708;53.114;9.388;2023-04-24T10:12:40;14.50;99.90
19152;DHT22;9708;53.114;9.388;2023-04-24T10:15:09;14.80;99.90
19152;DHT22;9708;53.114;9.388;2023-04-24T10:17:38;14.70;99.90
19152;DHT22;9708;53.114;9.388;2023-04-24T10:20:06;14.30;99.90
19152;DHT22;9708;53.114;9.388;2023-04-24T10:22:34;14.20;99.90
19152;DHT22;9708;53.114;9.388;2023-04-24T10:25:03;13.80;99.90
19152;DHT22;9708;53.114;9.388;2023-04-24T10:27:32;13.90;99.90
19152;DHT22;9708;53.114;9.388;2023-04-24T10:30:01;13.90;99.90
19152;DHT22;9708;53.114;9.388;2023-04-24T10:32:28;14.00;99.90
19152;DHT22;9708;53.114;9.388;2023-04-24T10:34:55;14.00;99.90
19152;DHT22;9708;53.114;9.388;2023-04-24T10:37:23;13.90;99.90
19152;DHT22;9708;53.114;9.388;2023-04-24T10:39:50;13.70;99.90
19152;DHT22;9708;53.114;9.388;2023-04-24T10:42:20;13.80;99.90
19152;DHT22;9708;53.114;9.388;2023-04-24T10:44:48;13.80;99.90
19152;DHT22;9708;53.114;9.388;2023-04-24T10:47:16;13.70;99.90
19152;DHT22;9708;53.114;9.388;2023-04-24T10:49:43;13.40;99.90
19152;DHT22;9708;53.114;9.388;2023-04-24T10:52:10;13.30;99.90
19152;DHT22;9708;53.114;9.388;2023-04-24T10:54:42;13.20;99.90
19152;DHT22;9708;53.114;9.388;2023-04-24T10:57:28;13.10;99.90
19152;DHT22;9708;53.114;9.388;2023-04-24T11:00:15;13.10;99.90
19152;DHT22;9708;53.114;9.388;2023-04-24T11:02:46;13.00;99.90
19152;DHT22;9708;53.114;9.388;2023-04-24T11:05:16;12.80;99.90
19152;DHT22;9708;53.114;9.388;2023-04-24T11:08:11;12.80;99.90
19152;DHT22;9708;53.114;9.388;2023-04-24T11:10:39;12.80;99.90
19152;DHT22;9708;53.114;9.388;2023-04-24T11:13:06;12.60;99.90
19152;DHT22;9708;53.114;9.388;2023-04-24T11:15:34;12.50;99.90
19152;DHT22;9708;53.114;9.388;2023-04-24T11:18:02;12.60;99.90
19152;DHT22;9708;53.114;9.388;2023-04-24T11:20:29;12.70;99.90
19152;DHT22;9708;53.114;9.388;2023-04-24T11:22:57;12.70;99.90
19152;DHT22;9708;53.114;9.388;2023-04-24T11:25:31;12.90;99.90
19152;DHT22;9708;53.114;9.388;2023-04-24T11:28:03;12.90;99.90
19152;DHT22;9708;53.114;9.388;2023-04-24T11:30:32;12.90;99.90
19152;DHT22;9708;53.114;9.388;2023-04-24T11:33:04;12.80;99.90
19152;DHT22;9708;53.114;9.388;2023-04-24T11:35:35;12.70;99.90
19152;DHT22;9708;53.114;9.388;2023-04-24T11:38:04;12.60;99.90
19152;DHT22;9708;53.114;9.388;2023-04-24T11:40:31;12.50;99.90
19152;DHT22;9708;53.114;9.388;2023-04-24T11:43:00;12.40;99.90
19152;DHT22;9708;53.114;9.388;2023-04-24T11:45:28;12.40;99.90
19152;DHT22;9708;53.114;9.388;2023-04-24T11:47:54;12.60;99.90
19152;DHT22;9708;53.114;9.388;2023-04-24T11:50:24;12.80;99.90
19152;DHT22;9708;53.114;9.388;2023-04-24T11:52:52;13.00;99.90
19152;DHT22;9708;53.114;9.388;2023-04-24T11:55:26;13.40;99.90
19152;DHT22;9708;53.114;9.388;2023-04-24T11:57:55;13.70;99.90
19152;DHT22;9708;53.114;9.388;2023-04-24T12:00:24;13.80;99.90
19152;DHT22;9708;53.114;9.388;2023-04-24T12:03:02;14.10;99.90
19152;DHT22;9708;53.114;9.388;2023-04-24T12:05:30;14.00;99.90
19152;DHT22;9708;53.114;9.388;2023-04-24T12:07:57;13.80;99.90
19152;DHT22;9708;53.114;9.388;2023-04-24T12:10:25;13.80;99.90
19152;DHT22;9708;53.114;9.388;2023-04-24T12:12:53;13.70;99.90
19152;DHT22;9708;53.114;9.388;2023-04-24T12:15:21;13.40;99.90
19152;DHT22;9708;53.114;9.388;2023-04-24T12:17:50;13.10;99.90
19152;DHT22;9708;53.114;9.388;2023-04-24T12:20:17;13.00;99.90
19152;DHT22;9708;53.114;9.388;2023-04-24T12:22:52;12.90;99.90
19152;DHT22;9708;53.114;9.388;2023-04-24T12:25:21;12.80;99.90
19152;DHT22;9708;53.114;9.388;2023-04-24T12:27:53;12.80;99.90
19152;DHT22;9708;53.114;9.388;2023-04-24T12:30:20;12.70;99.90
19152;DHT22;9708;53.114;9.388;2023-04-24T12:32:49;12.80;99.90
19152;DHT22;9708;53.114;9.388;2023-04-24T12:35:19;12.80;99.90
19152;DHT22;9708;53.114;9.388;2023-04-24T12:37:47;12.90;99.90
19152;DHT22;9708;53.114;9.388;2023-04-24T12:40:16;12.80;99.90
19152;DHT22;9708;53.114;9.388;2023-04-24T12:42:45;13.00;99.90
19152;DHT22;9708;53.114;9.388;2023-04-24T12:45:12;13.10;99.90
19152;DHT22;9708;53.114;9.388;2023-04-24T12:47:40;13.20;99.90
19152;DHT22;9708;53.114;9.388;2023-04-24T12:50:08;13.40;99.90
19152;DHT22;9708;53.114;9.388;2023-04-24T12:52:35;13.40;99.90
19152;DHT22;9708;53.114;9.388;2023-04-24T12:55:03;13.00;99.90
19152;DHT22;9708;53.114;9.388;2023-04-24T12:57:31;12.90;99.90
19152;DHT22;9708;53.114;9.388;2023-04-24T12:59:58;12.80;99.90
19152;DHT22;9708;53.114;9.388;2023-04-24T13:02:27;12.90;99.90
19152;DHT22;9708;53.114;9.388;2023-04-24T13:04:55;13.00;99.90
19152;DHT22;9708;53.114;9.388;2023-04-24T13:07:22;13.20;99.90
19152;DHT22;9708;53.114;9.388;2023-04-24T13:09:50;13.50;99.90
19152;DHT22;9708;53.114;9.388;2023-04-24T13:12:17;13.40;99.90
19152;DHT22;9708;53.114;9.388;2023-04-24T13:14:46;13.20;99.90
19152;DHT22;9708;53.114;9.388;2023-04-24T13:17:13;13.00;99.90
19152;DHT22;9708;53.114;9.388;2023-04-24T13:19:42;12.70;99.90
19152;DHT22;9708;53.114;9.388;2023-04-24T13:22:11;12.80;99.90
19152;DHT22;9708;53.114;9.388;2023-04-24T13:24:38;12.50;99.90
19152;DHT22;9708;53.114;9.388;2023-04-24T13:27:06;12.50;99.90
19152;DHT22;9708;53.114;9.388;2023-04-24T13:29:33;12.40;99.90
19152;DHT22;9708;53.114;9.388;2023-04-24T13:32:01;12.30;99.90
19152;DHT22;9708;53.114;9.388;2023-04-24T13:34:28;12.10;99.90
19152;DHT22;9708;53.114;9.388;2023-04-24T13:36:57;11.90;99.90
19152;DHT22;9708;53.114;9.388;2023-04-24T13:39:25;11.80;99.90
19152;DHT22;9708;53.114;9.388;2023-04-24T13:41:52;11.80;99.90
19152;DHT22;9708;53.114;9.388;2023-04-24T13:44:20;11.80;99.90
19152;DHT22;9708;53.114;9.388;2023-04-24T13:46:48;11.70;99.90
19152;DHT22;9708;53.114;9.388;2023-04-24T13:49:18;11.70;99.90
19152;DHT22;9708;53.114;9.388;2023-04-24T13:51:44;11.80;99.90
19152;DHT22;9708;53.114;9.388;2023-04-24T13:54:12;11.60;99.90
19152;DHT22;9708;53.114;9.388;2023-04-24T13:56:39;11.60;99.90
19152;DHT22;9708;53.114;9.388;2023-04-24T13:59:06;11.60;99.90
19152;DHT22;9708;53.114;9.388;2023-04-24T14:01:33;11.60;99.90
19152;DHT22;9708;53.114;9.388;2023-04-24T14:03:59;11.60;99.90
19152;DHT22;9708;53.114;9.388;2023-04-24T14:06:28;11.50;99.90
19152;DHT22;9708;53.114;9.388;2023-04-24T14:08:55;11.20;99.90
19152;DHT22;9708;53.114;9.388;2023-04-24T14:11:21;10.80;99.90
19152;DHT22;9708;53.114;9.388;2023-04-24T14:13:49;10.60;99.90
19152;DHT22;9708;53.114;9.388;2023-04-24T14:16:15;10.50;99.90
19152;DHT22;9708;53.114;9.388;2023-04-24T14:18:42;10.50;99.90
19152;DHT22;9708;53.114;9.388;2023-04-24T14:21:09;10.40;99.90
19152;DHT22;9708;53.114;9.388;2023-04-24T14:23:37;10.40;99.90
19152;DHT22;9708;53.114;9.388;2023-04-24T14:26:04;10.20;99.90
19152;DHT22;9708;53.114;9.388;2023-04-24T14:28:31;10.30;99.90
19152;DHT22;9708;53.114;9.388;2023-04-24T14:30:58;10.20;99.90
19152;DHT22;9708;53.114;9.388;2023-04-24T14:33:25;9.90;99.90
19152;DHT22;9708;53.114;9.388;2023-04-24T14:35:51;9.80;99.90
19152;DHT22;9708;53.114;9.388;2023-04-24T14:38:18;9.70;99.90
19152;DHT22;9708;53.114;9.388;2023-04-24T14:40:46;9.80;99.90
19152;DHT22;9708;53.114;9.388;2023-04-24T14:43:13;9.70;99.90
19152;DHT22;9708;53.114;9.388;2023-04-24T14:45:40;9.70;99.90
19152;DHT22;9708;53.114;9.388;2023-04-24T14:48:07;9.60;99.90
19152;DHT22;9708;53.114;9.388;2023-04-24T14:50:35;9.60;99.90
19152;DHT22;9708;53.114;9.388;2023-04-24T14:53:03;9.50;99.90
19152;DHT22;9708;53.114;9.388;2023-04-24T14:55:30;9.50;99.90
19152;DHT22;9708;53.114;9.388;2023-04-24T14:57:59;9.50;99.90
19152;DHT22;9708;53.114;9.388;2023-04-24T15:00:26;9.40;99.90
19152;DHT22;9708;53.114;9.388;2023-04-24T15:02:53;9.30;99.90
19152;DHT22;9708;53.114;9.388;2023-04-24T15:05:20;9.40;99.90
19152;DHT22;9708;53.114;9.388;2023-04-24T15:07:48;9.30;99.90
19152;DHT22;9708;53.114;9.388;2023-04-24T15:10:14;9.30;99.90
19152;DHT22;9708;53.114;9.388;2023-04-24T15:12:43;9.40;99.90
19152;DHT22;9708;53.114;9.388;2023-04-24T15:15:11;9.40;99.90
19152;DHT22;9708;53.114;9.388;2023-04-24T15:17:38;9.30;99.90
19152;DHT22;9708;53.114;9.388;2023-04-24T15:20:06;9.30;99.90
19152;DHT22;9708;53.114;9.388;2023-04-24T15:22:33;9.20;99.90
19152;DHT22;9708;53.114;9.388;2023-04-24T15:25:00;9.20;99.90
19152;DHT22;9708;53.114;9.388;2023-04-24T15:27:39;9.10;99.90
19152;DHT22;9708;53.114;9.388;2023-04-24T15:30:07;9.20;99.90
19152;DHT22;9708;53.114;9.388;2023-04-24T15:32:36;9.10;99.90
19152;DHT22;9708;53.114;9.388;2023-04-24T15:35:03;9.20;99.90
19152;DHT22;9708;53.114;9.388;2023-04-24T15:37:30;9.20;99.90
19152;DHT22;9708;53.114;9.388;2023-04-24T15:39:57;9.20;99.90
19152;DHT22;9708;53.114;9.388;2023-04-24T15:42:25;9.10;99.90
19152;DHT22;9708;53.114;9.388;2023-04-24T15:44:52;9.00;99.90
19152;DHT22;9708;53.114;9.388;2023-04-24T15:47:19;9.00;99.90
19152;DHT22;9708;53.114;9.388;2023-04-24T15:49:47;9.00;99.90
19152;DHT22;9708;53.114;9.388;2023-04-24T15:52:14;9.00;99.90